AKDT,Max TemperatureF,Mean TemperatureF,Min TemperatureF,Max Dew PointF,MeanDew PointF,Min DewpointF,Max Humidity, Mean Humidity, Min Humidity, Max Sea Level PressureIn, Mean Sea Level PressureIn, Min Sea Level PressureIn, Max VisibilityMiles, Mean VisibilityMiles, Min VisibilityMiles, Max Wind SpeedMPH, Mean Wind SpeedMPH, Max Gust SpeedMPH,PrecipitationIn, CloudCover, Events, WindDirDegrees
2013-3-1,45,41,37,38,34,30,89,79,58,30.00,29.96,29.94,10,10,10,6,4,,0.02,8,Rain,93
2013-3-2,45,38,30,38,34,27,96,89,63,30.19,30.00,29.91,10,8,0,7,3,,0.07,6,Fog-Rain,34
2013-3-3,42,35,28,36,30,27,100,90,73,30.41,30.31,30.19,10,7,1,7,0,,0.01,7,,311
2013-3-4,46,39,30,32,26,21,92,68,39,30.41,30.30,30.19,10,10,10,12,4,18,0.00,1,,36
2013-3-5,48,38,26,23,22,18,84,57,32,30.17,30.01,29.92,10,10,10,13,7,,0.00,0,,33
2013-3-6,44,34,23,26,22,20,89,68,42,29.95,29.91,29.88,10,10,10,7,1,,0.00,0,,285
2013-3-7,46,35,24,26,24,19,92,70,37,30.09,30.02,29.96,10,10,10,6,1,,0.01,0,,227
2013-3-8,44,35,26,33,29,23,93,72,55,30.15,30.12,30.08,10,10,10,7,2,,0.00,7,,82
2013-3-9,39,36,33,37,35,30,100,90,68,30.33,30.11,29.94,10,9,2,18,4,33,0.45,8,Rain-Snow,203
2013-3-10,39,36,32,36,33,30,100,91,81,30.38,30.37,30.34,10,9,1,7,3,20,0.25,7,Rain-Snow,183
2013-3-11,39,36,33,34,32,30,100,89,75,30.38,30.23,29.95,10,8,1,9,2,,0.12,7,Rain-Snow,171
2013-3-12,39,36,32,34,32,29,100,89,73,29.92,29.71,29.67,10,8,1,9,4,,0.19,7,Rain-Snow,42
2013-3-13,41,34,30,36,31,29,96,91,76,29.86,29.77,29.70,10,6,0,8,1,,0.14,7,Fog-Rain-Snow,344
2013-3-14,43,38,35,32,30,27,89,75,65,29.83,29.74,29.69,10,10,10,15,10,24,0.00,8,,27
2013-3-15,45,38,33,41,35,30,96,88,75,29.97,29.86,29.76,10,9,2,10,4,20,0.33,8,Rain-Snow,181
2013-3-16,43,36,30,34,31,28,96,87,65,29.98,29.93,29.91,10,10,10,9,2,,0.02,6,Rain,24
2013-3-17,44,34,26,32,27,24,100,85,51,30.01,29.99,29.96,10,8,1,7,0,,0.01,5,Rain-Snow,332
2013-3-18,39,36,32,35,32,30,96,90,81,30.05,29.99,29.91,10,4,0,15,4,23,0.33,8,Fog-Snow,195
2013-3-19,37,34,28,34,31,27,96,90,79,29.88,29.72,29.51,10,4,0,8,4,,0.57,7,Fog-Snow,170
2013-3-20,39,32,26,28,26,20,100,86,50,29.74,29.53,29.45,10,6,0,10,1,,0.02,5,Fog-Snow,344
2013-3-21,36,32,28,34,30,27,100,90,75,30.25,29.94,29.76,10,5,0,12,3,,0.33,7,Fog-Rain-Snow,158
2013-3-22,41,31,23,29,26,21,92,78,49,30.37,30.32,30.27,10,10,10,8,2,,0.01,2,,21
2013-3-23,46,38,30,31,29,26,82,70,52,30.26,30.19,30.09,10,10,10,9,4,,0.00,6,,34
2013-3-24,48,42,37,38,34,30,86,73,61,30.09,29.98,29.84,10,10,10,9,3,,0.02,8,Rain,20
2013-3-25,43,38,33,43,38,31,100,89,79,29.99,29.87,29.77,10,8,2,10,4,,0.27,8,Rain,215
2013-3-26,43,34,28,36,32,26,100,88,55,30.16,30.07,29.99,10,9,2,8,1,,0.05,7,Rain,300
2013-3-27,46,36,25,30,25,22,96,69,40,30.17,30.15,30.13,10,10,10,8,2,16,0.01,0,,344
2013-3-28,46,37,28,30,26,22,92,71,43,30.22,30.18,30.15,10,10,10,10,3,,0.00,0,,282
2013-3-29,48,38,28,33,28,23,92,71,39,30.35,30.29,30.24,10,10,10,7,1,,0.00,2,,242
2013-3-30,46,42,37,44,40,31,100,93,73,30.37,30.35,30.34,10,8,2,6,2,,0.25,8,Rain,26
2013-3-31,55,43,33,44,38,33,100,94,64,30.35,30.24,30.03,10,8,1,9,2,,0.01,3,,301